sensor_id;sensor_type;location;lat;lon;timestamp;P1;durP1;ratioP1;P2;durP2;ratioP2
64242;SDS011;50573;51.512;5.386;2023-06-24T00:09:27;17.00;;;11.80;;
64242;SDS011;50573;51.512;5.386;2023-06-24T00:19:31;14.18;;;11.05;;
64242;SDS011;50573;51.512;5.386;2023-06-24T00:29:35;17.65;;;13.63;;
64242;SDS011;50573;51.512;5.386;2023-06-24T00:39:38;20.58;;;13.95;;
64242;SDS011;50573;51.512;5.386;2023-06-24T00:49:43;16.13;;;13.55;;
64242;SDS011;50573;51.512;5.386;2023-06-24T00:59:47;16.35;;;14.07;;
64242;SDS011;50573;51.512;5.386;2023-06-24T01:09:56;15.88;;;12.57;;
64242;SDS011;50573;51.512;5.386;2023-06-24T01:20:02;16.00;;;13.18;;
64242;SDS011;50573;51.512;5.386;2023-06-24T01:30:17;18.80;;;12.77;;
64242;SDS011;50573;51.512;5.386;2023-06-24T01:40:44;20.02;;;11.52;;
64242;SDS011;50573;51.512;5.386;2023-06-24T01:50:51;19.50;;;12.82;;
64242;SDS011;50573;51.512;5.386;2023-06-24T02:01:01;15.52;;;12.15;;
64242;SDS011;50573;51.512;5.386;2023-06-24T02:11:05;14.25;;;11.65;;
64242;SDS011;50573;51.512;5.386;2023-06-24T02:21:14;13.88;;;12.38;;
64242;SDS011;50573;51.512;5.386;2023-06-24T02:31:21;20.85;;;15.27;;
64242;SDS011;50573;51.512;5.386;2023-06-24T02:41:26;21.80;;;13.47;;
64242;SDS011;50573;51.512;5.386;2023-06-24T02:51:30;15.95;;;14.23;;
64242;SDS011;50573;51.512;5.386;2023-06-24T03:01:38;17.95;;;11.15;;
64242;SDS011;50573;51.512;5.386;2023-06-24T03:11:47;20.05;;;15.23;;
64242;SDS011;50573;51.512;5.386;2023-06-24T03:22:00;19.23;;;15.90;;
64242;SDS011;50573;51.512;5.386;2023-06-24T03:32:04;24.13;;;17.23;;
64242;SDS011;50573;51.512;5.386;2023-06-24T03:42:09;25.52;;;17.27;;
64242;SDS011;50573;51.512;5.386;2023-06-24T03:52:12;22.50;;;17.65;;
64242;SDS011;50573;51.512;5.386;2023-06-24T04:02:19;27.35;;;19.73;;
64242;SDS011;50573;51.512;5.386;2023-06-24T04:12:23;24.35;;;17.90;;
64242;SDS011;50573;51.512;5.386;2023-06-24T04:22:28;21.35;;;16.00;;
64242;SDS011;50573;51.512;5.386;2023-06-24T04:32:33;23.27;;;16.85;;
64242;SDS011;50573;51.512;5.386;2023-06-24T04:42:39;24.57;;;17.17;;
64242;SDS011;50573;51.512;5.386;2023-06-24T04:52:42;21.35;;;16.23;;
64242;SDS011;50573;51.512;5.386;2023-06-24T05:02:47;24.45;;;18.52;;
64242;SDS011;50573;51.512;5.386;2023-06-24T05:12:50;29.30;;;20.00;;
64242;SDS011;50573;51.512;5.386;2023-06-24T05:22:55;25.52;;;19.38;;
64242;SDS011;50573;51.512;5.386;2023-06-24T05:43:02;18.48;;;15.88;;
64242;SDS011;50573;51.512;5.386;2023-06-24T06:03:09;20.30;;;15.25;;
64242;SDS011;50573;51.512;5.386;2023-06-24T06:13:13;20.67;;;13.85;;
64242;SDS011;50573;51.512;5.386;2023-06-24T06:23:17;17.10;;;13.35;;
64242;SDS011;50573;51.512;5.386;2023-06-24T06:33:20;15.35;;;11.93;;
64242;SDS011;50573;51.512;5.386;2023-06-24T06:43:24;15.43;;;11.15;;
64242;SDS011;50573;51.512;5.386;2023-06-24T06:53:27;15.25;;;11.50;;
64242;SDS011;50573;51.512;5.386;2023-06-24T07:03:32;11.70;;;9.57;;
64242;SDS011;50573;51.512;5.386;2023-06-24T07:13:35;10.68;;;8.48;;
64242;SDS011;50573;51.512;5.386;2023-06-24T07:23:39;9.20;;;6.63;;
64242;SDS011;50573;51.512;5.386;2023-06-24T07:33:43;7.90;;;5.93;;
64242;SDS011;50573;51.512;5.386;2023-06-24T07:43:50;9.63;;;5.30;;
64242;SDS011;50573;51.512;5.386;2023-06-24T07:53:53;7.35;;;5.88;;
64242;SDS011;50573;51.512;5.386;2023-06-24T08:03:58;7.03;;;4.93;;
64242;SDS011;50573;51.512;5.386;2023-06-24T08:14:01;5.90;;;4.82;;
64242;SDS011;50573;51.512;5.386;2023-06-24T08:24:07;5.20;;;3.90;;
64242;SDS011;50573;51.512;5.386;2023-06-24T08:34:10;6.18;;;4.05;;
64242;SDS011;50573;51.512;5.386;2023-06-24T08:44:14;5.27;;;3.30;;
64242;SDS011;50573;51.512;5.386;2023-06-24T08:54:17;5.75;;;3.40;;
64242;SDS011;50573;51.512;5.386;2023-06-24T09:04:23;3.78;;;2.90;;
64242;SDS011;50573;51.512;5.386;2023-06-24T09:14:27;4.65;;;3.08;;
64242;SDS011;50573;51.512;5.386;2023-06-24T09:24:34;7.97;;;3.60;;
64242;SDS011;50573;51.512;5.386;2023-06-24T09:34:38;6.25;;;3.42;;
64242;SDS011;50573;51.512;5.386;2023-06-24T09:44:43;5.43;;;3.20;;
64242;SDS011;50573;51.512;5.386;2023-06-24T09:54:46;3.60;;;2.65;;
64242;SDS011;50573;51.512;5.386;2023-06-24T10:04:54;6.53;;;3.40;;
64242;SDS011;50573;51.512;5.386;2023-06-24T10:14:58;4.18;;;2.83;;
64242;SDS011;50573;51.512;5.386;2023-06-24T10:25:05;3.63;;;2.90;;
64242;SDS011;50573;51.512;5.386;2023-06-24T10:35:21;6.07;;;2.83;;
64242;SDS011;50573;51.512;5.386;2023-06-24T10:45:27;5.00;;;2.78;;
64242;SDS011;50573;51.512;5.386;2023-06-24T10:55:31;5.20;;;3.60;;
64242;SDS011;50573;51.512;5.386;2023-06-24T11:05:35;6.90;;;3.42;;
64242;SDS011;50573;51.512;5.386;2023-06-24T11:15:41;6.43;;;3.85;;
64242;SDS011;50573;51.512;5.386;2023-06-24T11:25:45;5.57;;;4.05;;
64242;SDS011;50573;51.512;5.386;2023-06-24T11:35:49;7.50;;;4.15;;
64242;SDS011;50573;51.512;5.386;2023-06-24T11:45:53;6.43;;;4.40;;
64242;SDS011;50573;51.512;5.386;2023-06-24T11:55:56;5.22;;;4.50;;
64242;SDS011;50573;51.512;5.386;2023-06-24T12:06:01;6.10;;;4.63;;
64242;SDS011;50573;51.512;5.386;2023-06-24T12:16:04;6.70;;;4.28;;
64242;SDS011;50573;51.512;5.386;2023-06-24T12:26:08;5.30;;;4.30;;
64242;SDS011;50573;51.512;5.386;2023-06-24T12:36:12;6.60;;;4.22;;
64242;SDS011;50573;51.512;5.386;2023-06-24T12:46:19;4.68;;;4.00;;
64242;SDS011;50573;51.512;5.386;2023-06-24T12:56:26;4.00;;;3.65;;
64242;SDS011;50573;51.512;5.386;2023-06-24T13:06:31;6.05;;;3.67;;
64242;SDS011;50573;51.512;5.386;2023-06-24T13:16:38;6.75;;;4.38;;
64242;SDS011;50573;51.512;5.386;2023-06-24T13:26:47;5.00;;;3.78;;
64242;SDS011;50573;51.512;5.386;2023-06-24T13:36:51;4.90;;;3.85;;
64242;SDS011;50573;51.512;5.386;2023-06-24T13:46:56;5.35;;;3.85;;
64242;SDS011;50573;51.512;5.386;2023-06-24T13:57:00;4.05;;;3.55;;
64242;SDS011;50573;51.512;5.386;2023-06-24T14:07:05;5.82;;;3.80;;
64242;SDS011;50573;51.512;5.386;2023-06-24T14:17:08;6.28;;;3.58;;
64242;SDS011;50573;51.512;5.386;2023-06-24T14:27:14;5.10;;;3.95;;
64242;SDS011;50573;51.512;5.386;2023-06-24T14:37:17;4.13;;;3.63;;
64242;SDS011;50573;51.512;5.386;2023-06-24T14:47:22;7.85;;;3.97;;
64242;SDS011;50573;51.512;5.386;2023-06-24T14:57:25;7.03;;;3.88;;
64242;SDS011;50573;51.512;5.386;2023-06-24T15:07:29;4.88;;;3.65;;
64242;SDS011;50573;51.512;5.386;2023-06-24T15:17:32;10.50;;;4.03;;
64242;SDS011;50573;51.512;5.386;2023-06-24T15:27:38;4.05;;;3.40;;
64242;SDS011;50573;51.512;5.386;2023-06-24T15:37:41;5.57;;;3.75;;
64242;SDS011;50573;51.512;5.386;2023-06-24T15:47:45;8.25;;;3.97;;
64242;SDS011;50573;51.512;5.386;2023-06-24T15:57:49;5.85;;;3.65;;
64242;SDS011;50573;51.512;5.386;2023-06-24T16:07:53;9.00;;;5.38;;
64242;SDS011;50573;51.512;5.386;2023-06-24T16:17:57;4.00;;;3.60;;
64242;SDS011;50573;51.512;5.386;2023-06-24T16:28:03;4.93;;;4.00;;
64242;SDS011;50573;51.512;5.386;2023-06-24T16:38:06;4.90;;;3.63;;
64242;SDS011;50573;51.512;5.386;2023-06-24T16:48:11;7.47;;;4.25;;
64242;SDS011;50573;51.512;5.386;2023-06-24T16:58:14;7.03;;;4.40;;
64242;SDS011;50573;51.512;5.386;2023-06-24T17:08:19;5.55;;;4.35;;
64242;SDS011;50573;51.512;5.386;2023-06-24T17:18:22;5.07;;;4.10;;
64242;SDS011;50573;51.512;5.386;2023-06-24T17:28:26;6.63;;;4.60;;
64242;SDS011;50573;51.512;5.386;2023-06-24T17:38:29;5.80;;;4.68;;
64242;SDS011;50573;51.512;5.386;2023-06-24T17:48:34;5.35;;;4.32;;
64242;SDS011;50573;51.512;5.386;2023-06-24T17:58:37;4.85;;;4.28;;
64242;SDS011;50573;51.512;5.386;2023-06-24T18:08:41;4.95;;;4.30;;
64242;SDS011;50573;51.512;5.386;2023-06-24T18:18:45;5.93;;;4.72;;
64242;SDS011;50573;51.512;5.386;2023-06-24T18:28:49;6.10;;;5.10;;
64242;SDS011;50573;51.512;5.386;2023-06-24T18:38:52;7.07;;;5.13;;
64242;SDS011;50573;51.512;5.386;2023-06-24T18:48:57;6.70;;;5.57;;
64242;SDS011;50573;51.512;5.386;2023-06-24T18:59:00;9.93;;;5.97;;
64242;SDS011;50573;51.512;5.386;2023-06-24T19:09:13;11.38;;;5.43;;
64242;SDS011;50573;51.512;5.386;2023-06-24T19:19:17;6.63;;;5.82;;
64242;SDS011;50573;51.512;5.386;2023-06-24T19:29:24;8.50;;;6.05;;
64242;SDS011;50573;51.512;5.386;2023-06-24T19:39:27;10.68;;;5.95;;
64242;SDS011;50573;51.512;5.386;2023-06-24T19:49:32;8.38;;;7.40;;
64242;SDS011;50573;51.512;5.386;2023-06-24T19:59:35;10.60;;;7.07;;
64242;SDS011;50573;51.512;5.386;2023-06-24T20:09:40;13.93;;;8.73;;
64242;SDS011;50573;51.512;5.386;2023-06-24T20:19:43;13.90;;;8.40;;
64242;SDS011;50573;51.512;5.386;2023-06-24T20:29:47;12.88;;;8.52;;
64242;SDS011;50573;51.512;5.386;2023-06-24T20:39:50;16.20;;;8.85;;
64242;SDS011;50573;51.512;5.386;2023-06-24T20:49:55;9.47;;;7.90;;
64242;SDS011;50573;51.512;5.386;2023-06-24T20:59:58;12.85;;;9.98;;
64242;SDS011;50573;51.512;5.386;2023-06-24T21:10:03;10.13;;;8.63;;
64242;SDS011;50573;51.512;5.386;2023-06-24T21:20:06;16.42;;;10.18;;
64242;SDS011;50573;51.512;5.386;2023-06-24T21:30:12;17.70;;;10.85;;
64242;SDS011;50573;51.512;5.386;2023-06-24T21:40:15;23.95;;;13.73;;
64242;SDS011;50573;51.512;5.386;2023-06-24T21:50:20;19.97;;;14.33;;
64242;SDS011;50573;51.512;5.386;2023-06-24T22:00:23;23.70;;;15.73;;
64242;SDS011;50573;51.512;5.386;2023-06-24T22:20:31;25.85;;;17.55;;
64242;SDS011;50573;51.512;5.386;2023-06-24T22:30:35;22.43;;;15.90;;
64242;SDS011;50573;51.512;5.386;2023-06-24T22:40:39;22.42;;;15.80;;
64242;SDS011;50573;51.512;5.386;2023-06-24T22:50:44;29.83;;;18.03;;
64242;SDS011;50573;51.512;5.386;2023-06-24T23:00:47;24.65;;;16.80;;
64242;SDS011;50573;51.512;5.386;2023-06-24T23:10:51;27.80;;;18.47;;
64242;SDS011;50573;51.512;5.386;2023-06-24T23:20:55;30.08;;;19.42;;
64242;SDS011;50573;51.512;5.386;2023-06-24T23:31:00;29.13;;;19.27;;
64242;SDS011;50573;51.512;5.386;2023-06-24T23:41:06;26.05;;;19.80;;
64242;SDS011;50573;51.512;5.386;2023-06-24T23:51:11;25.00;;;17.75;;
